createdAt,value
2024-02-11T00:04:25.528Z,13.40
2024-02-11T00:09:30.935Z,13.20
2024-02-11T00:14:34.786Z,12.73
2024-02-11T00:19:39.601Z,13.05
2024-02-11T00:24:45.112Z,13.10
2024-02-11T00:29:49.066Z,12.40
2024-02-11T00:34:53.193Z,11.57
2024-02-11T00:39:58.857Z,12.93
2024-02-11T00:45:02.994Z,11.98
2024-02-11T00:50:08.044Z,12.75
2024-02-11T00:55:15.317Z,11.77
2024-02-11T01:00:19.933Z,12.07
2024-02-11T01:05:24.699Z,11.15
2024-02-11T01:10:32.775Z,10.80
2024-02-11T01:15:37.710Z,11.77
2024-02-11T01:20:43.702Z,11.13
2024-02-11T01:25:48.985Z,11.60
2024-02-11T01:30:53.264Z,11.27
2024-02-11T01:35:57.193Z,11.05
2024-02-11T01:41:02.345Z,11.50
2024-02-11T01:46:07.551Z,10.82
2024-02-11T01:51:11.995Z,11.55
2024-02-11T01:56:22.098Z,10.65
2024-02-11T02:01:29.104Z,11.13
2024-02-11T02:06:33.393Z,11.80
2024-02-11T02:11:40.035Z,11.93
2024-02-11T02:16:44.644Z,11.48
2024-02-11T02:21:52.509Z,10.07
2024-02-11T02:26:56.548Z,11.60
2024-02-11T02:32:00.767Z,12.30
2024-02-11T02:37:07.724Z,8.43
2024-02-11T02:42:12.638Z,10.98
2024-02-11T02:47:16.671Z,12.20
2024-02-11T02:52:22.228Z,12.07
2024-02-11T02:57:26.540Z,12.35
2024-02-11T03:02:31.526Z,12.13
2024-02-11T03:07:40.533Z,12.77
2024-02-11T03:12:44.713Z,11.73
2024-02-11T03:17:49.589Z,11.43
2024-02-11T03:22:55.042Z,11.98
2024-02-11T03:27:59.076Z,11.70
2024-02-11T03:33:02.875Z,11.55
2024-02-11T03:38:09.323Z,10.45
2024-02-11T03:43:14.640Z,11.77
2024-02-11T03:48:20.407Z,11.82
2024-02-11T03:53:25.909Z,8.18
2024-02-11T03:58:29.991Z,10.65
2024-02-11T04:03:35.313Z,10.32
2024-02-11T04:08:43.317Z,10.63
2024-02-11T04:13:47.391Z,10.65
2024-02-11T04:18:51.522Z,9.65
2024-02-11T04:23:56.929Z,11.15
2024-02-11T04:29:01.960Z,10.73
2024-02-11T04:34:06.773Z,11.23
2024-02-11T04:39:12.109Z,9.57
2024-02-11T04:44:16.846Z,8.98
2024-02-11T04:49:23.089Z,9.27
2024-02-11T04:54:28.546Z,8.93
2024-02-11T04:59:33.860Z,8.82
2024-02-11T05:04:38.125Z,9.02
2024-02-11T05:09:47.158Z,7.63
2024-02-11T05:14:52.448Z,9.20
2024-02-11T05:19:56.954Z,8.95
2024-02-11T05:25:02.768Z,8.35
2024-02-11T05:30:10.862Z,8.65
2024-02-11T05:35:14.941Z,8.90
2024-02-11T05:40:20.998Z,8.93
2024-02-11T05:45:26.058Z,9.40
2024-02-11T05:50:30.499Z,8.82
2024-02-11T05:55:37.213Z,8.55
2024-02-11T06:00:45.023Z,7.15
2024-02-11T06:05:50.620Z,8.30
2024-02-11T06:10:56.022Z,8.30
2024-02-11T06:15:59.965Z,8.65
2024-02-11T06:21:03.817Z,8.73
2024-02-11T06:26:09.077Z,7.28
2024-02-11T06:31:14.599Z,7.30
2024-02-11T06:36:19.044Z,7.22
2024-02-11T06:41:24.265Z,6.28
2024-02-11T06:46:28.540Z,8.27
2024-02-11T06:51:33.039Z,10.95
2024-02-11T06:56:38.834Z,5.38
2024-02-11T07:01:43.930Z,6.50
2024-02-11T07:06:48.207Z,10.52
2024-02-11T07:11:54.014Z,4.20
2024-02-11T07:16:59.551Z,6.72
2024-02-11T07:22:04.907Z,6.72
2024-02-11T07:27:15.457Z,11.23
2024-02-11T07:32:20.412Z,12.00
2024-02-11T07:37:24.500Z,10.60
2024-02-11T07:42:31.302Z,11.18
2024-02-11T07:47:35.608Z,9.43
2024-02-11T07:52:39.670Z,7.05
2024-02-11T07:57:47.783Z,10.32
2024-02-11T08:02:53.848Z,9.05
2024-02-11T08:07:57.934Z,6.82
2024-02-11T08:13:09.234Z,7.32
2024-02-11T08:18:13.544Z,7.15
2024-02-11T08:23:17.788Z,6.35
2024-02-11T08:28:23.137Z,3.83
2024-02-11T08:33:27.320Z,1.95
2024-02-11T08:38:32.446Z,1.73
2024-02-11T08:43:37.665Z,1.90
2024-02-11T08:48:41.768Z,1.00
2024-02-11T08:53:47.054Z,0.70
2024-02-11T08:58:54.428Z,1.02
2024-02-11T09:04:01.094Z,0.40
2024-02-11T09:09:07.033Z,0.20
2024-02-11T09:14:12.519Z,0.32
2024-02-11T09:19:17.314Z,0.50
2024-02-11T09:24:21.401Z,0.28
2024-02-11T09:29:28.172Z,0.40
2024-02-11T09:34:32.712Z,0.20
2024-02-11T09:39:36.510Z,0.20
2024-02-11T09:44:44.397Z,0.10
2024-02-11T09:49:53.077Z,0.30
2024-02-11T09:54:57.182Z,0.30
2024-02-11T10:00:02.557Z,0.70
2024-02-11T10:05:13.132Z,0.70
2024-02-11T10:10:18.432Z,1.00
2024-02-11T10:15:26.887Z,1.20
2024-02-11T10:20:31.012Z,0.55
2024-02-11T10:25:35.486Z,1.98
2024-02-11T10:30:40.692Z,1.13
2024-02-11T10:35:44.783Z,0.47
2024-02-11T10:40:49.469Z,0.80
2024-02-11T10:45:55.223Z,1.08
2024-02-11T10:51:10.952Z,1.27
2024-02-11T10:56:17.213Z,1.63
2024-02-11T11:01:23.334Z,1.40
2024-02-11T11:06:29.073Z,1.50
2024-02-11T11:11:33.141Z,2.00
2024-02-11T11:16:42.448Z,1.42
2024-02-11T11:21:53.576Z,2.03
2024-02-11T11:26:59.139Z,1.95
2024-02-11T11:32:10.620Z,1.52
2024-02-11T11:37:16.887Z,1.27
2024-02-11T11:42:21.040Z,2.28
2024-02-11T11:47:27.135Z,1.60
2024-02-11T11:52:31.555Z,1.83
2024-02-11T11:57:35.924Z,1.30
2024-02-11T12:02:41.641Z,1.60
2024-02-11T12:07:45.885Z,1.40
2024-02-11T12:12:51.075Z,2.03
2024-02-11T12:18:01.799Z,2.35
2024-02-11T12:23:06.445Z,2.42
2024-02-11T12:28:10.546Z,2.47
2024-02-11T12:33:17.750Z,2.00
2024-02-11T12:38:22.554Z,2.53
2024-02-11T12:43:26.920Z,1.65
2024-02-11T12:48:32.417Z,3.60
2024-02-11T12:53:38.991Z,2.72
2024-02-11T12:58:48.324Z,1.95
2024-02-11T13:03:53.914Z,5.60
2024-02-11T13:08:58.040Z,4.80
2024-02-11T13:14:02.157Z,4.80
2024-02-11T13:19:07.687Z,3.40
2024-02-11T13:24:11.851Z,4.47
2024-02-11T13:29:15.984Z,4.22
2024-02-11T13:34:21.637Z,2.95
2024-02-11T13:39:27.346Z,4.00
2024-02-11T13:44:31.534Z,2.55
2024-02-11T13:49:37.232Z,2.60
2024-02-11T13:54:41.635Z,4.57
2024-02-11T13:59:45.682Z,3.08
2024-02-11T14:04:51.049Z,3.20
2024-02-11T14:09:56.702Z,2.17
2024-02-11T14:15:00.735Z,4.38
2024-02-11T14:20:11.954Z,3.17
2024-02-11T14:25:17.667Z,3.22
2024-02-11T14:30:22.593Z,7.07
2024-02-11T14:35:28.062Z,6.28
2024-02-11T14:40:32.401Z,2.63
2024-02-11T14:45:37.328Z,5.53
2024-02-11T14:50:42.568Z,4.53
2024-02-11T14:55:47.115Z,4.10
2024-02-11T15:00:51.237Z,5.63
2024-02-11T15:05:56.816Z,4.60
2024-02-11T15:11:00.902Z,4.43
2024-02-11T15:16:06.981Z,4.43
2024-02-11T15:21:12.558Z,5.68
2024-02-11T15:26:18.103Z,2.92
2024-02-11T15:31:22.200Z,7.45
2024-02-11T15:36:27.618Z,8.60
2024-02-11T15:41:31.901Z,5.60
2024-02-11T15:46:40.198Z,5.50
2024-02-11T15:51:48.870Z,2.33
2024-02-11T15:56:52.950Z,6.75
2024-02-11T16:01:57.331Z,5.55
2024-02-11T16:07:04.118Z,6.18
2024-02-11T16:12:09.905Z,4.50
2024-02-11T16:17:14.055Z,3.95
2024-02-11T16:22:20.565Z,7.35
2024-02-11T16:27:24.653Z,5.20
2024-02-11T16:32:28.852Z,2.67
2024-02-11T16:37:34.661Z,4.28
2024-02-11T16:42:38.712Z,4.57
2024-02-11T16:47:42.682Z,6.00
2024-02-11T16:52:49.279Z,7.53
2024-02-11T16:57:53.449Z,2.55
2024-02-11T17:03:00.109Z,4.72
2024-02-11T17:08:05.730Z,3.30
2024-02-11T17:13:12.146Z,3.70
2024-02-11T17:18:18.315Z,1.77
2024-02-11T17:23:25.380Z,3.25
2024-02-11T17:28:30.992Z,4.28
2024-02-11T17:33:37.488Z,4.82
2024-02-11T17:38:44.053Z,3.85
2024-02-11T17:43:48.482Z,2.72
2024-02-11T17:48:54.550Z,4.97
2024-02-11T17:54:01.460Z,5.85
2024-02-11T17:59:09.860Z,6.53
2024-02-11T18:04:17.020Z,7.60
2024-02-11T18:09:22.415Z,7.25
2024-02-11T18:14:26.389Z,3.22
2024-02-11T18:19:31.290Z,4.15
2024-02-11T18:24:37.788Z,4.95
2024-02-11T18:29:43.508Z,4.03
2024-02-11T18:34:49.013Z,4.68
2024-02-11T18:39:55.334Z,4.57
2024-02-11T18:44:59.391Z,4.70
2024-02-11T18:50:04.364Z,5.13
2024-02-11T18:55:11.720Z,5.45
2024-02-11T19:00:18.077Z,5.60
2024-02-11T19:05:24.261Z,5.20
2024-02-11T19:10:30.875Z,5.25
2024-02-11T19:15:35.641Z,9.98
2024-02-11T19:20:40.530Z,8.88
2024-02-11T19:25:48.172Z,9.88
2024-02-11T19:30:51.991Z,9.10
2024-02-11T19:36:15.642Z,11.65
2024-02-11T19:41:23.057Z,9.52
2024-02-11T19:46:28.346Z,5.75
2024-02-11T19:51:32.441Z,7.50
2024-02-11T19:56:38.065Z,7.72
2024-02-11T20:01:41.938Z,4.60
2024-02-11T20:06:46.216Z,5.72
2024-02-11T20:11:51.617Z,5.50
2024-02-11T20:16:55.895Z,7.38
2024-02-11T20:22:00.128Z,5.38
2024-02-11T20:27:05.740Z,6.38
2024-02-11T20:32:10.732Z,6.95
2024-02-11T20:37:14.859Z,5.07
2024-02-11T20:42:22.315Z,2.58
2024-02-11T20:47:31.363Z,2.33
2024-02-11T20:52:36.820Z,3.88
2024-02-11T20:57:43.846Z,2.70
2024-02-11T21:02:48.253Z,3.97
2024-02-11T21:07:54.640Z,3.85
2024-02-11T21:13:01.387Z,4.75
2024-02-11T21:18:06.271Z,1.98
2024-02-11T21:23:10.904Z,3.20
2024-02-11T21:28:17.105Z,4.80
2024-02-11T21:33:21.306Z,2.38
2024-02-11T21:38:26.174Z,5.47
2024-02-11T21:43:31.647Z,4.57
2024-02-11T21:48:36.333Z,4.15
2024-02-11T21:53:41.093Z,5.03
2024-02-11T21:58:46.487Z,3.50
2024-02-11T22:03:50.940Z,4.05
2024-02-11T22:08:54.703Z,3.38
2024-02-11T22:14:00.210Z,3.65
2024-02-11T22:19:04.553Z,2.20
2024-02-11T22:24:10.156Z,3.90
2024-02-11T22:29:15.399Z,4.10
2024-02-11T22:34:21.018Z,1.75
2024-02-11T22:39:25.128Z,2.60
2024-02-11T22:44:30.793Z,1.67
2024-02-11T22:49:34.961Z,2.90
2024-02-11T22:54:38.903Z,1.23
2024-02-11T22:59:45.328Z,2.00
2024-02-11T23:04:49.359Z,1.42
2024-02-11T23:09:53.387Z,1.13
2024-02-11T23:14:58.921Z,5.00
2024-02-11T23:20:07.795Z,1.35
2024-02-11T23:25:12.349Z,2.53
2024-02-11T23:30:18.096Z,1.52
2024-02-11T23:35:22.383Z,1.20
2024-02-11T23:40:26.431Z,2.30
2024-02-11T23:45:31.823Z,1.38
2024-02-11T23:50:35.940Z,1.50
2024-02-11T23:55:40.119Z,1.10
